createdAt,value
2019-03-19T00:00:29.122Z,3.62
2019-03-19T00:01:29.111Z,3.46
2019-03-19T00:02:29.100Z,3.53
2019-03-19T00:03:29.098Z,3.49
2019-03-19T00:04:29.077Z,3.42
2019-03-19T00:05:29.071Z,3.34
2019-03-19T00:06:29.058Z,3.44
2019-03-19T00:07:29.049Z,3.25
2019-03-19T00:08:29.045Z,3.28
2019-03-19T00:09:29.023Z,3.20
2019-03-19T00:10:29.032Z,3.21
2019-03-19T00:11:29.000Z,3.36
2019-03-19T00:12:29.000Z,3.30
2019-03-19T00:13:28.988Z,3.23
2019-03-19T00:14:28.967Z,3.31
2019-03-19T00:15:28.955Z,3.44
2019-03-19T00:16:28.945Z,3.36
2019-03-19T00:17:28.934Z,3.25
2019-03-19T00:18:28.933Z,3.39
2019-03-19T00:19:28.913Z,3.28
2019-03-19T00:20:28.901Z,3.25
2019-03-19T00:21:28.890Z,3.24
2019-03-19T00:22:28.882Z,3.23
2019-03-19T00:23:28.886Z,3.21
2019-03-19T00:24:28.858Z,3.15
2019-03-19T00:25:30.226Z,3.02
2019-03-19T00:26:28.835Z,2.97
2019-03-19T00:27:28.822Z,3.00
2019-03-19T00:28:28.818Z,2.95
2019-03-19T00:29:28.800Z,2.94
2019-03-19T00:30:28.788Z,2.88
2019-03-19T00:31:28.782Z,2.91
2019-03-19T00:32:28.766Z,2.88
2019-03-19T00:33:28.762Z,2.79
2019-03-19T00:34:28.745Z,2.76
2019-03-19T00:35:28.732Z,2.74
2019-03-19T00:36:28.724Z,2.69
2019-03-19T00:37:28.714Z,2.82
2019-03-19T00:38:28.707Z,2.59
2019-03-19T00:39:28.696Z,2.69
2019-03-19T00:40:28.677Z,2.63
2019-03-19T00:41:28.665Z,2.67
2019-03-19T00:42:28.654Z,2.49
2019-03-19T00:43:28.655Z,2.53
2019-03-19T00:44:28.638Z,2.56
2019-03-19T00:45:28.628Z,2.53
2019-03-19T00:46:28.610Z,2.41
2019-03-19T00:47:28.599Z,2.53
2019-03-19T00:48:28.596Z,2.46
2019-03-19T00:49:28.577Z,2.37
2019-03-19T00:50:28.567Z,2.38
2019-03-19T00:51:28.554Z,2.40
2019-03-19T00:52:28.542Z,2.35
2019-03-19T00:53:28.541Z,2.44
2019-03-19T00:54:28.524Z,2.33
2019-03-19T00:55:28.513Z,2.37
2019-03-19T00:56:28.499Z,2.28
2019-03-19T00:57:28.487Z,2.27
2019-03-19T00:58:28.487Z,2.33
2019-03-19T00:59:28.470Z,2.31
2019-03-19T01:00:28.455Z,2.22
2019-03-19T01:01:28.444Z,2.28
2019-03-19T01:02:28.432Z,2.28
2019-03-19T01:03:28.433Z,2.22
2019-03-19T01:04:28.412Z,2.22
2019-03-19T01:05:28.405Z,2.20
2019-03-19T01:06:28.389Z,2.19
2019-03-19T01:07:28.384Z,2.09
2019-03-19T01:08:28.366Z,2.08
2019-03-19T01:09:28.364Z,2.09
2019-03-19T01:10:28.343Z,2.12
2019-03-19T01:11:28.331Z,1.97
2019-03-19T01:12:28.321Z,1.94
2019-03-19T01:13:28.310Z,2.02
2019-03-19T01:14:28.309Z,2.02
2019-03-19T01:15:28.288Z,2.06
2019-03-19T01:16:28.276Z,2.13
2019-03-19T01:17:28.267Z,2.09
2019-03-19T01:18:28.257Z,2.12
2019-03-19T01:19:28.253Z,2.10
2019-03-19T01:20:28.233Z,2.13
2019-03-19T01:21:28.220Z,2.15
2019-03-19T01:22:28.211Z,2.09
2019-03-19T01:23:28.199Z,2.10
2019-03-19T01:24:28.196Z,2.09
2019-03-19T01:25:28.355Z,2.13
2019-03-19T01:26:28.167Z,2.12
2019-03-19T01:27:28.156Z,2.20
2019-03-19T01:28:28.142Z,2.15
2019-03-19T01:29:28.141Z,2.26
2019-03-19T01:30:28.120Z,2.19
2019-03-19T01:31:28.109Z,2.23
2019-03-19T01:32:28.097Z,2.28
2019-03-19T01:33:28.090Z,2.33
2019-03-19T01:34:28.084Z,2.31
2019-03-19T01:35:28.065Z,2.37
2019-03-19T01:36:28.056Z,2.28
2019-03-19T01:37:28.042Z,2.31
2019-03-19T01:38:28.035Z,2.41
2019-03-19T01:39:28.028Z,2.35
2019-03-19T01:40:28.011Z,2.45
2019-03-19T01:41:27.999Z,2.35
2019-03-19T01:42:27.987Z,2.45
2019-03-19T01:43:27.978Z,2.46
2019-03-19T01:44:27.976Z,2.51
2019-03-19T01:45:27.957Z,2.45
2019-03-19T01:46:27.942Z,2.49
2019-03-19T01:47:27.931Z,2.44
2019-03-19T01:48:27.920Z,2.35
2019-03-19T01:49:27.918Z,2.35
2019-03-19T01:50:27.898Z,2.37
2019-03-19T01:51:27.888Z,2.35
2019-03-19T01:52:27.876Z,2.37
2019-03-19T01:53:27.866Z,2.33
2019-03-19T01:54:27.862Z,2.20
2019-03-19T01:55:27.842Z,2.30
2019-03-19T01:56:27.834Z,2.28
2019-03-19T01:57:27.820Z,2.27
2019-03-19T01:58:27.811Z,2.16
2019-03-19T01:59:27.808Z,2.27
2019-03-19T02:00:27.790Z,2.22
2019-03-19T02:01:27.776Z,2.20
2019-03-19T02:02:27.766Z,2.10
2019-03-19T02:03:27.753Z,2.02
2019-03-19T02:04:27.751Z,2.10
2019-03-19T02:05:27.732Z,1.99
2019-03-19T02:06:27.720Z,1.90
2019-03-19T02:07:27.711Z,2.04
2019-03-19T02:08:27.701Z,1.97
2019-03-19T02:09:27.699Z,1.97
2019-03-19T02:10:27.677Z,1.94
2019-03-19T02:11:27.667Z,1.91
2019-03-19T02:12:27.655Z,1.82
2019-03-19T02:13:27.643Z,1.82
2019-03-19T02:14:27.646Z,1.78
2019-03-19T02:15:27.620Z,1.85
2019-03-19T02:16:27.612Z,1.72
2019-03-19T02:17:27.601Z,1.76
2019-03-19T02:18:27.588Z,1.78
2019-03-19T02:19:27.587Z,1.72
2019-03-19T02:20:27.565Z,1.71
2019-03-19T02:21:27.555Z,1.61
2019-03-19T02:22:27.543Z,1.57
2019-03-19T02:23:27.534Z,1.69
2019-03-19T02:24:27.535Z,1.57
2019-03-19T02:25:27.509Z,1.57
2019-03-19T02:26:27.501Z,1.54
2019-03-19T02:27:27.490Z,1.47
2019-03-19T02:28:27.479Z,1.44
2019-03-19T02:29:27.465Z,1.46
2019-03-19T02:30:27.465Z,1.37
2019-03-19T02:31:27.446Z,1.40
2019-03-19T02:32:27.437Z,1.37
2019-03-19T02:33:27.428Z,1.39
2019-03-19T02:34:27.409Z,1.37
2019-03-19T02:35:27.409Z,1.26
2019-03-19T02:36:27.390Z,1.25
2019-03-19T02:37:27.377Z,1.24
2019-03-19T02:38:27.371Z,1.22
